sensor_id;sensor_type;location;lat;lon;timestamp;P1;durP1;ratioP1;P2;durP2;ratioP2
2934;SDS011;2462;51.456;7.248;2023-08-24T00:00:41;3.30;;;3.00;;
2934;SDS011;2462;51.456;7.248;2023-08-24T00:03:08;4.30;;;3.00;;
2934;SDS011;2462;51.456;7.248;2023-08-24T00:05:34;3.50;;;3.20;;
2934;SDS011;2462;51.456;7.248;2023-08-24T00:08:05;3.80;;;3.00;;
2934;SDS011;2462;51.456;7.248;2023-08-24T00:10:31;3.20;;;2.93;;
2934;SDS011;2462;51.456;7.248;2023-08-24T00:12:57;4.00;;;3.10;;
2934;SDS011;2462;51.456;7.248;2023-08-24T00:15:23;3.10;;;2.77;;
2934;SDS011;2462;51.456;7.248;2023-08-24T00:17:49;3.43;;;2.80;;
2934;SDS011;2462;51.456;7.248;2023-08-24T00:20:15;4.20;;;2.87;;
2934;SDS011;2462;51.456;7.248;2023-08-24T00:22:41;3.50;;;3.20;;
2934;SDS011;2462;51.456;7.248;2023-08-24T00:25:08;2.77;;;2.57;;
2934;SDS011;2462;51.456;7.248;2023-08-24T00:27:35;3.00;;;2.70;;
2934;SDS011;2462;51.456;7.248;2023-08-24T00:30:02;3.43;;;3.00;;
2934;SDS011;2462;51.456;7.248;2023-08-24T00:32:29;3.60;;;2.83;;
2934;SDS011;2462;51.456;7.248;2023-08-24T00:34:58;2.90;;;2.70;;
2934;SDS011;2462;51.456;7.248;2023-08-24T00:37:24;4.20;;;3.03;;
2934;SDS011;2462;51.456;7.248;2023-08-24T00:39:50;3.50;;;3.20;;
2934;SDS011;2462;51.456;7.248;2023-08-24T00:42:16;3.17;;;2.80;;
2934;SDS011;2462;51.456;7.248;2023-08-24T00:44:43;2.83;;;2.60;;
2934;SDS011;2462;51.456;7.248;2023-08-24T00:47:09;3.63;;;2.80;;
2934;SDS011;2462;51.456;7.248;2023-08-24T00:49:35;3.17;;;2.87;;
2934;SDS011;2462;51.456;7.248;2023-08-24T00:52:01;3.47;;;2.93;;
2934;SDS011;2462;51.456;7.248;2023-08-24T00:54:27;3.37;;;2.73;;
2934;SDS011;2462;51.456;7.248;2023-08-24T00:56:54;3.30;;;3.00;;
2934;SDS011;2462;51.456;7.248;2023-08-24T00:59:20;4.40;;;3.37;;
2934;SDS011;2462;51.456;7.248;2023-08-24T01:01:46;4.50;;;2.90;;
2934;SDS011;2462;51.456;7.248;2023-08-24T01:04:13;3.17;;;2.63;;
2934;SDS011;2462;51.456;7.248;2023-08-24T01:06:39;2.67;;;2.43;;
2934;SDS011;2462;51.456;7.248;2023-08-24T01:09:05;3.07;;;2.77;;
2934;SDS011;2462;51.456;7.248;2023-08-24T01:14:08;3.27;;;2.97;;
2934;SDS011;2462;51.456;7.248;2023-08-24T01:16:39;3.70;;;2.73;;
2934;SDS011;2462;51.456;7.248;2023-08-24T01:19:11;3.37;;;2.97;;
2934;SDS011;2462;51.456;7.248;2023-08-24T01:21:44;3.03;;;2.83;;
2934;SDS011;2462;51.456;7.248;2023-08-24T01:24:12;3.03;;;2.73;;
2934;SDS011;2462;51.456;7.248;2023-08-24T01:26:38;3.83;;;3.27;;
2934;SDS011;2462;51.456;7.248;2023-08-24T01:29:05;2.80;;;2.50;;
2934;SDS011;2462;51.456;7.248;2023-08-24T01:31:32;3.23;;;2.83;;
2934;SDS011;2462;51.456;7.248;2023-08-24T01:33:58;3.17;;;2.97;;
2934;SDS011;2462;51.456;7.248;2023-08-24T01:36:26;4.80;;;2.97;;
2934;SDS011;2462;51.456;7.248;2023-08-24T01:38:58;4.20;;;3.20;;
2934;SDS011;2462;51.456;7.248;2023-08-24T01:41:31;3.43;;;2.40;;
2934;SDS011;2462;51.456;7.248;2023-08-24T01:44:03;3.07;;;2.87;;
2934;SDS011;2462;51.456;7.248;2023-08-24T01:46:30;3.73;;;3.40;;
2934;SDS011;2462;51.456;7.248;2023-08-24T01:48:57;4.30;;;2.70;;
2934;SDS011;2462;51.456;7.248;2023-08-24T01:51:23;3.30;;;3.00;;
2934;SDS011;2462;51.456;7.248;2023-08-24T01:53:49;3.73;;;3.40;;
2934;SDS011;2462;51.456;7.248;2023-08-24T01:56:16;2.70;;;2.50;;
2934;SDS011;2462;51.456;7.248;2023-08-24T01:58:42;3.23;;;2.97;;
2934;SDS011;2462;51.456;7.248;2023-08-24T02:01:08;3.70;;;3.10;;
2934;SDS011;2462;51.456;7.248;2023-08-24T02:03:35;2.87;;;2.67;;
2934;SDS011;2462;51.456;7.248;2023-08-24T02:06:01;3.63;;;3.33;;
2934;SDS011;2462;51.456;7.248;2023-08-24T02:08:27;3.03;;;2.73;;
2934;SDS011;2462;51.456;7.248;2023-08-24T02:10:53;3.10;;;2.80;;
2934;SDS011;2462;51.456;7.248;2023-08-24T02:13:19;5.17;;;3.07;;
2934;SDS011;2462;51.456;7.248;2023-08-24T02:15:45;3.43;;;2.87;;
2934;SDS011;2462;51.456;7.248;2023-08-24T02:18:12;3.23;;;2.77;;
2934;SDS011;2462;51.456;7.248;2023-08-24T02:20:38;2.87;;;2.60;;
2934;SDS011;2462;51.456;7.248;2023-08-24T02:23:04;3.43;;;3.13;;
2934;SDS011;2462;51.456;7.248;2023-08-24T02:25:30;3.37;;;2.93;;
2934;SDS011;2462;51.456;7.248;2023-08-24T02:27:56;3.60;;;3.30;;
2934;SDS011;2462;51.456;7.248;2023-08-24T02:30:22;3.20;;;2.90;;
2934;SDS011;2462;51.456;7.248;2023-08-24T02:32:49;4.13;;;3.70;;
2934;SDS011;2462;51.456;7.248;2023-08-24T02:35:16;4.10;;;3.50;;
2934;SDS011;2462;51.456;7.248;2023-08-24T02:37:43;3.50;;;3.20;;
2934;SDS011;2462;51.456;7.248;2023-08-24T02:40:09;3.20;;;2.90;;
2934;SDS011;2462;51.456;7.248;2023-08-24T02:42:35;2.90;;;2.60;;
2934;SDS011;2462;51.456;7.248;2023-08-24T02:45:01;3.10;;;2.80;;
2934;SDS011;2462;51.456;7.248;2023-08-24T02:47:27;5.93;;;2.53;;
2934;SDS011;2462;51.456;7.248;2023-08-24T02:49:53;3.43;;;3.00;;
2934;SDS011;2462;51.456;7.248;2023-08-24T02:52:19;3.23;;;2.90;;
2934;SDS011;2462;51.456;7.248;2023-08-24T02:54:45;4.23;;;3.53;;
2934;SDS011;2462;51.456;7.248;2023-08-24T02:57:11;3.17;;;2.87;;
2934;SDS011;2462;51.456;7.248;2023-08-24T02:59:37;6.10;;;3.50;;
2934;SDS011;2462;51.456;7.248;2023-08-24T03:02:04;4.10;;;2.70;;
2934;SDS011;2462;51.456;7.248;2023-08-24T03:04:30;3.67;;;2.90;;
2934;SDS011;2462;51.456;7.248;2023-08-24T03:06:56;3.53;;;3.23;;
2934;SDS011;2462;51.456;7.248;2023-08-24T03:09:22;2.70;;;2.50;;
2934;SDS011;2462;51.456;7.248;2023-08-24T03:11:48;4.00;;;3.50;;
2934;SDS011;2462;51.456;7.248;2023-08-24T03:14:14;2.83;;;2.60;;
2934;SDS011;2462;51.456;7.248;2023-08-24T03:16:40;4.40;;;3.43;;
2934;SDS011;2462;51.456;7.248;2023-08-24T03:19:06;4.70;;;3.20;;
2934;SDS011;2462;51.456;7.248;2023-08-24T03:21:32;3.53;;;2.83;;
2934;SDS011;2462;51.456;7.248;2023-08-24T03:23:58;3.50;;;3.20;;
2934;SDS011;2462;51.456;7.248;2023-08-24T03:26:24;4.40;;;2.93;;
2934;SDS011;2462;51.456;7.248;2023-08-24T03:28:50;4.03;;;3.20;;
2934;SDS011;2462;51.456;7.248;2023-08-24T03:31:16;4.77;;;3.73;;
2934;SDS011;2462;51.456;7.248;2023-08-24T03:33:42;3.87;;;3.20;;
2934;SDS011;2462;51.456;7.248;2023-08-24T03:36:08;3.80;;;3.47;;
2934;SDS011;2462;51.456;7.248;2023-08-24T03:38:34;3.30;;;2.97;;
2934;SDS011;2462;51.456;7.248;2023-08-24T03:41:03;3.37;;;3.07;;
2934;SDS011;2462;51.456;7.248;2023-08-24T03:43:33;3.27;;;2.97;;
2934;SDS011;2462;51.456;7.248;2023-08-24T03:46:00;3.63;;;3.33;;
2934;SDS011;2462;51.456;7.248;2023-08-24T03:48:26;4.30;;;3.17;;
2934;SDS011;2462;51.456;7.248;2023-08-24T03:50:56;4.10;;;3.37;;
2934;SDS011;2462;51.456;7.248;2023-08-24T03:53:22;3.17;;;2.90;;
2934;SDS011;2462;51.456;7.248;2023-08-24T03:55:49;3.30;;;3.00;;
2934;SDS011;2462;51.456;7.248;2023-08-24T03:58:15;3.10;;;2.80;;
2934;SDS011;2462;51.456;7.248;2023-08-24T04:00:41;3.67;;;3.30;;
2934;SDS011;2462;51.456;7.248;2023-08-24T04:03:08;3.40;;;3.20;;
2934;SDS011;2462;51.456;7.248;2023-08-24T04:05:34;4.80;;;3.70;;
2934;SDS011;2462;51.456;7.248;2023-08-24T04:08:00;3.63;;;3.33;;
2934;SDS011;2462;51.456;7.248;2023-08-24T04:10:27;4.20;;;3.80;;
2934;SDS011;2462;51.456;7.248;2023-08-24T04:12:53;3.23;;;2.93;;
2934;SDS011;2462;51.456;7.248;2023-08-24T04:15:19;3.33;;;3.03;;
2934;SDS011;2462;51.456;7.248;2023-08-24T04:17:45;3.50;;;3.20;;
2934;SDS011;2462;51.456;7.248;2023-08-24T04:20:11;3.83;;;3.30;;
2934;SDS011;2462;51.456;7.248;2023-08-24T04:22:37;4.03;;;3.57;;
2934;SDS011;2462;51.456;7.248;2023-08-24T04:25:03;3.80;;;3.20;;
2934;SDS011;2462;51.456;7.248;2023-08-24T04:27:31;4.00;;;3.03;;
2934;SDS011;2462;51.456;7.248;2023-08-24T04:29:57;3.37;;;3.07;;
2934;SDS011;2462;51.456;7.248;2023-08-24T04:32:23;4.23;;;3.07;;
2934;SDS011;2462;51.456;7.248;2023-08-24T04:34:49;3.80;;;3.40;;
2934;SDS011;2462;51.456;7.248;2023-08-24T04:37:15;3.43;;;2.97;;
2934;SDS011;2462;51.456;7.248;2023-08-24T04:39:41;6.50;;;4.53;;
2934;SDS011;2462;51.456;7.248;2023-08-24T04:42:07;12.00;;;6.17;;
2934;SDS011;2462;51.456;7.248;2023-08-24T04:44:33;6.70;;;5.33;;
2934;SDS011;2462;51.456;7.248;2023-08-24T04:46:59;9.20;;;5.93;;
2934;SDS011;2462;51.456;7.248;2023-08-24T04:49:25;8.93;;;6.50;;
2934;SDS011;2462;51.456;7.248;2023-08-24T04:51:51;7.13;;;5.87;;
2934;SDS011;2462;51.456;7.248;2023-08-24T04:54:17;7.77;;;5.73;;
2934;SDS011;2462;51.456;7.248;2023-08-24T04:56:43;11.60;;;6.97;;
2934;SDS011;2462;51.456;7.248;2023-08-24T04:59:09;10.43;;;6.23;;
2934;SDS011;2462;51.456;7.248;2023-08-24T05:01:35;7.10;;;5.53;;
2934;SDS011;2462;51.456;7.248;2023-08-24T05:04:02;7.00;;;5.40;;
2934;SDS011;2462;51.456;7.248;2023-08-24T05:06:28;20.23;;;5.87;;
2934;SDS011;2462;51.456;7.248;2023-08-24T05:08:54;8.30;;;5.93;;
2934;SDS011;2462;51.456;7.248;2023-08-24T05:11:22;8.70;;;5.47;;
2934;SDS011;2462;51.456;7.248;2023-08-24T05:13:49;7.03;;;5.63;;
2934;SDS011;2462;51.456;7.248;2023-08-24T05:16:15;6.77;;;5.70;;
2934;SDS011;2462;51.456;7.248;2023-08-24T05:18:41;8.07;;;5.67;;
2934;SDS011;2462;51.456;7.248;2023-08-24T05:21:07;7.50;;;5.90;;
2934;SDS011;2462;51.456;7.248;2023-08-24T05:23:34;13.50;;;6.20;;
2934;SDS011;2462;51.456;7.248;2023-08-24T05:26:00;20.33;;;7.37;;
2934;SDS011;2462;51.456;7.248;2023-08-24T05:28:26;9.10;;;5.83;;
2934;SDS011;2462;51.456;7.248;2023-08-24T05:30:53;9.47;;;6.17;;
2934;SDS011;2462;51.456;7.248;2023-08-24T05:33:19;8.87;;;6.00;;
2934;SDS011;2462;51.456;7.248;2023-08-24T05:35:46;10.53;;;6.20;;
2934;SDS011;2462;51.456;7.248;2023-08-24T05:38:12;7.90;;;6.07;;
2934;SDS011;2462;51.456;7.248;2023-08-24T05:40:38;12.30;;;6.33;;
2934;SDS011;2462;51.456;7.248;2023-08-24T05:43:04;6.83;;;5.60;;
2934;SDS011;2462;51.456;7.248;2023-08-24T05:45:31;12.70;;;5.97;;
2934;SDS011;2462;51.456;7.248;2023-08-24T05:47:57;8.57;;;5.80;;
2934;SDS011;2462;51.456;7.248;2023-08-24T05:50:23;8.40;;;5.37;;
2934;SDS011;2462;51.456;7.248;2023-08-24T05:52:49;6.43;;;5.40;;
2934;SDS011;2462;51.456;7.248;2023-08-24T05:55:15;9.33;;;5.33;;
2934;SDS011;2462;51.456;7.248;2023-08-24T05:57:41;10.03;;;5.93;;
2934;SDS011;2462;51.456;7.248;2023-08-24T06:00:07;10.03;;;5.83;;
2934;SDS011;2462;51.456;7.248;2023-08-24T06:02:35;11.50;;;6.00;;
2934;SDS011;2462;51.456;7.248;2023-08-24T06:05:01;6.47;;;5.40;;
2934;SDS011;2462;51.456;7.248;2023-08-24T06:07:27;16.30;;;5.93;;
2934;SDS011;2462;51.456;7.248;2023-08-24T06:09:53;10.20;;;5.90;;
2934;SDS011;2462;51.456;7.248;2023-08-24T06:12:19;8.23;;;6.03;;
2934;SDS011;2462;51.456;7.248;2023-08-24T06:14:45;10.27;;;5.90;;
2934;SDS011;2462;51.456;7.248;2023-08-24T06:17:11;8.63;;;5.00;;
2934;SDS011;2462;51.456;7.248;2023-08-24T06:19:37;6.23;;;5.30;;
2934;SDS011;2462;51.456;7.248;2023-08-24T06:22:03;8.30;;;5.03;;
2934;SDS011;2462;51.456;7.248;2023-08-24T06:24:29;8.17;;;5.60;;
2934;SDS011;2462;51.456;7.248;2023-08-24T06:26:55;8.57;;;5.70;;
2934;SDS011;2462;51.456;7.248;2023-08-24T06:29:21;6.33;;;4.90;;
2934;SDS011;2462;51.456;7.248;2023-08-24T06:31:47;7.23;;;5.00;;
2934;SDS011;2462;51.456;7.248;2023-08-24T06:34:13;7.00;;;4.80;;
2934;SDS011;2462;51.456;7.248;2023-08-24T06:36:39;7.53;;;4.77;;
2934;SDS011;2462;51.456;7.248;2023-08-24T06:39:05;8.80;;;5.57;;
2934;SDS011;2462;51.456;7.248;2023-08-24T06:41:35;5.50;;;4.80;;
2934;SDS011;2462;51.456;7.248;2023-08-24T06:44:01;5.57;;;4.20;;
2934;SDS011;2462;51.456;7.248;2023-08-24T06:46:28;9.07;;;5.10;;
2934;SDS011;2462;51.456;7.248;2023-08-24T06:48:54;10.50;;;5.40;;
2934;SDS011;2462;51.456;7.248;2023-08-24T06:51:20;9.47;;;5.77;;
2934;SDS011;2462;51.456;7.248;2023-08-24T06:53:46;8.53;;;6.57;;
2934;SDS011;2462;51.456;7.248;2023-08-24T06:56:13;6.03;;;5.40;;
2934;SDS011;2462;51.456;7.248;2023-08-24T06:58:45;10.03;;;6.37;;
2934;SDS011;2462;51.456;7.248;2023-08-24T07:01:11;10.83;;;6.10;;
2934;SDS011;2462;51.456;7.248;2023-08-24T07:03:37;9.07;;;5.93;;
2934;SDS011;2462;51.456;7.248;2023-08-24T07:06:07;7.90;;;5.17;;
2934;SDS011;2462;51.456;7.248;2023-08-24T07:08:33;8.20;;;4.80;;
2934;SDS011;2462;51.456;7.248;2023-08-24T07:11:00;7.77;;;4.80;;
2934;SDS011;2462;51.456;7.248;2023-08-24T07:13:27;7.93;;;4.83;;
2934;SDS011;2462;51.456;7.248;2023-08-24T07:15:53;8.97;;;5.63;;
2934;SDS011;2462;51.456;7.248;2023-08-24T07:18:20;8.63;;;6.03;;
2934;SDS011;2462;51.456;7.248;2023-08-24T07:20:46;7.00;;;5.20;;
2934;SDS011;2462;51.456;7.248;2023-08-24T07:23:12;6.90;;;5.70;;
2934;SDS011;2462;51.456;7.248;2023-08-24T07:25:38;6.20;;;5.30;;
2934;SDS011;2462;51.456;7.248;2023-08-24T07:28:06;9.50;;;5.40;;
2934;SDS011;2462;51.456;7.248;2023-08-24T07:30:33;8.57;;;5.50;;
2934;SDS011;2462;51.456;7.248;2023-08-24T07:32:59;15.07;;;6.80;;
2934;SDS011;2462;51.456;7.248;2023-08-24T07:35:25;75.60;;;12.10;;
2934;SDS011;2462;51.456;7.248;2023-08-24T07:37:52;199.23;;;22.83;;
2934;SDS011;2462;51.456;7.248;2023-08-24T07:40:18;339.87;;;44.97;;
2934;SDS011;2462;51.456;7.248;2023-08-24T07:42:45;308.50;;;37.33;;
2934;SDS011;2462;51.456;7.248;2023-08-24T07:45:11;231.90;;;33.20;;
2934;SDS011;2462;51.456;7.248;2023-08-24T07:47:37;236.73;;;32.47;;
2934;SDS011;2462;51.456;7.248;2023-08-24T07:50:03;193.03;;;29.23;;
2934;SDS011;2462;51.456;7.248;2023-08-24T07:52:29;217.93;;;34.87;;
2934;SDS011;2462;51.456;7.248;2023-08-24T07:54:55;133.27;;;24.07;;
2934;SDS011;2462;51.456;7.248;2023-08-24T07:57:24;112.47;;;22.67;;
2934;SDS011;2462;51.456;7.248;2023-08-24T07:59:51;104.67;;;19.00;;
2934;SDS011;2462;51.456;7.248;2023-08-24T08:02:17;77.10;;;17.00;;
2934;SDS011;2462;51.456;7.248;2023-08-24T08:04:43;83.43;;;17.23;;
2934;SDS011;2462;51.456;7.248;2023-08-24T08:07:09;59.03;;;12.33;;
2934;SDS011;2462;51.456;7.248;2023-08-24T08:09:36;45.50;;;10.53;;
2934;SDS011;2462;51.456;7.248;2023-08-24T08:12:02;34.03;;;8.83;;
2934;SDS011;2462;51.456;7.248;2023-08-24T08:14:28;44.17;;;10.00;;
2934;SDS011;2462;51.456;7.248;2023-08-24T08:16:54;33.60;;;8.30;;
2934;SDS011;2462;51.456;7.248;2023-08-24T08:19:20;23.97;;;6.87;;
2934;SDS011;2462;51.456;7.248;2023-08-24T08:21:47;23.23;;;7.63;;
2934;SDS011;2462;51.456;7.248;2023-08-24T08:24:13;24.70;;;7.63;;
2934;SDS011;2462;51.456;7.248;2023-08-24T08:26:39;17.10;;;6.70;;
2934;SDS011;2462;51.456;7.248;2023-08-24T08:29:05;12.50;;;5.10;;
2934;SDS011;2462;51.456;7.248;2023-08-24T08:31:31;10.20;;;4.90;;
2934;SDS011;2462;51.456;7.248;2023-08-24T08:33:57;8.70;;;5.20;;
2934;SDS011;2462;51.456;7.248;2023-08-24T08:36:23;16.20;;;5.03;;
2934;SDS011;2462;51.456;7.248;2023-08-24T08:38:49;8.03;;;5.23;;
2934;SDS011;2462;51.456;7.248;2023-08-24T08:41:15;6.70;;;4.27;;
2934;SDS011;2462;51.456;7.248;2023-08-24T08:43:42;7.53;;;4.90;;
2934;SDS011;2462;51.456;7.248;2023-08-24T08:46:09;10.03;;;5.33;;
2934;SDS011;2462;51.456;7.248;2023-08-24T08:48:36;7.37;;;4.73;;
2934;SDS011;2462;51.456;7.248;2023-08-24T08:51:02;7.87;;;4.60;;
2934;SDS011;2462;51.456;7.248;2023-08-24T08:53:28;10.40;;;4.43;;
2934;SDS011;2462;51.456;7.248;2023-08-24T08:55:55;7.37;;;5.70;;
2934;SDS011;2462;51.456;7.248;2023-08-24T08:58:22;9.10;;;4.27;;
2934;SDS011;2462;51.456;7.248;2023-08-24T09:00:49;6.20;;;4.10;;
2934;SDS011;2462;51.456;7.248;2023-08-24T09:03:16;5.23;;;3.80;;
2934;SDS011;2462;51.456;7.248;2023-08-24T09:05:43;7.07;;;4.00;;
2934;SDS011;2462;51.456;7.248;2023-08-24T09:08:12;7.40;;;4.10;;
2934;SDS011;2462;51.456;7.248;2023-08-24T09:10:38;6.67;;;3.60;;
2934;SDS011;2462;51.456;7.248;2023-08-24T09:13:04;6.77;;;4.00;;
2934;SDS011;2462;51.456;7.248;2023-08-24T09:15:34;8.20;;;4.70;;
2934;SDS011;2462;51.456;7.248;2023-08-24T09:18:00;8.37;;;4.17;;
2934;SDS011;2462;51.456;7.248;2023-08-24T09:20:27;6.13;;;4.07;;
2934;SDS011;2462;51.456;7.248;2023-08-24T09:22:54;9.20;;;4.37;;
2934;SDS011;2462;51.456;7.248;2023-08-24T09:25:22;7.17;;;3.80;;
2934;SDS011;2462;51.456;7.248;2023-08-24T09:28:01;4.40;;;4.00;;
2934;SDS011;2462;51.456;7.248;2023-08-24T09:30:29;5.03;;;4.20;;
2934;SDS011;2462;51.456;7.248;2023-08-24T09:32:56;9.40;;;4.23;;
2934;SDS011;2462;51.456;7.248;2023-08-24T09:35:26;4.60;;;3.73;;
2934;SDS011;2462;51.456;7.248;2023-08-24T09:37:52;5.30;;;3.53;;
2934;SDS011;2462;51.456;7.248;2023-08-24T09:40:23;6.87;;;4.00;;
2934;SDS011;2462;51.456;7.248;2023-08-24T09:42:49;6.73;;;3.83;;
2934;SDS011;2462;51.456;7.248;2023-08-24T09:45:15;6.93;;;3.97;;
2934;SDS011;2462;51.456;7.248;2023-08-24T09:47:50;5.67;;;4.17;;
2934;SDS011;2462;51.456;7.248;2023-08-24T09:50:19;4.53;;;3.30;;
2934;SDS011;2462;51.456;7.248;2023-08-24T09:52:46;5.80;;;3.80;;
2934;SDS011;2462;51.456;7.248;2023-08-24T09:55:18;6.07;;;3.83;;
2934;SDS011;2462;51.456;7.248;2023-08-24T09:57:47;7.83;;;4.00;;
2934;SDS011;2462;51.456;7.248;2023-08-24T10:00:14;7.40;;;4.33;;
2934;SDS011;2462;51.456;7.248;2023-08-24T10:02:51;4.20;;;3.43;;
2934;SDS011;2462;51.456;7.248;2023-08-24T10:05:23;6.03;;;3.73;;
2934;SDS011;2462;51.456;7.248;2023-08-24T10:07:51;7.30;;;4.20;;
2934;SDS011;2462;51.456;7.248;2023-08-24T10:10:18;6.50;;;3.87;;
2934;SDS011;2462;51.456;7.248;2023-08-24T10:12:46;6.73;;;3.53;;
2934;SDS011;2462;51.456;7.248;2023-08-24T10:15:13;11.03;;;3.90;;
2934;SDS011;2462;51.456;7.248;2023-08-24T10:17:40;4.00;;;3.40;;
2934;SDS011;2462;51.456;7.248;2023-08-24T10:20:06;5.55;;;3.67;;
2934;SDS011;2462;51.456;7.248;2023-08-24T10:22:36;6.10;;;3.50;;
2934;SDS011;2462;51.456;7.248;2023-08-24T10:25:02;8.33;;;4.00;;
2934;SDS011;2462;51.456;7.248;2023-08-24T10:27:29;6.53;;;3.40;;
2934;SDS011;2462;51.456;7.248;2023-08-24T10:29:55;8.50;;;2.70;;
2934;SDS011;2462;51.456;7.248;2023-08-24T10:32:23;5.10;;;3.30;;
2934;SDS011;2462;51.456;7.248;2023-08-24T10:34:50;3.80;;;3.30;;
2934;SDS011;2462;51.456;7.248;2023-08-24T10:37:16;5.40;;;3.00;;
2934;SDS011;2462;51.456;7.248;2023-08-24T10:39:48;3.53;;;3.17;;
2934;SDS011;2462;51.456;7.248;2023-08-24T10:42:14;3.60;;;3.07;;
2934;SDS011;2462;51.456;7.248;2023-08-24T10:44:45;4.87;;;3.10;;
2934;SDS011;2462;51.456;7.248;2023-08-24T10:49:38;5.00;;;2.70;;
2934;SDS011;2462;51.456;7.248;2023-08-24T10:54:46;3.73;;;3.10;;
2934;SDS011;2462;51.456;7.248;2023-08-24T10:57:23;5.10;;;3.27;;
2934;SDS011;2462;51.456;7.248;2023-08-24T11:02:25;4.23;;;3.17;;
2934;SDS011;2462;51.456;7.248;2023-08-24T11:05:04;4.10;;;3.10;;
2934;SDS011;2462;51.456;7.248;2023-08-24T11:07:31;7.80;;;2.60;;
2934;SDS011;2462;51.456;7.248;2023-08-24T11:09:57;4.97;;;3.23;;
2934;SDS011;2462;51.456;7.248;2023-08-24T11:12:23;4.77;;;3.17;;
2934;SDS011;2462;51.456;7.248;2023-08-24T11:14:52;3.60;;;2.63;;
2934;SDS011;2462;51.456;7.248;2023-08-24T11:17:29;5.80;;;3.70;;
2934;SDS011;2462;51.456;7.248;2023-08-24T11:19:58;3.57;;;3.10;;
2934;SDS011;2462;51.456;7.248;2023-08-24T11:22:24;5.47;;;3.60;;
2934;SDS011;2462;51.456;7.248;2023-08-24T11:24:51;4.50;;;2.83;;
2934;SDS011;2462;51.456;7.248;2023-08-24T11:27:17;7.10;;;2.90;;
2934;SDS011;2462;51.456;7.248;2023-08-24T11:29:43;6.03;;;2.92;;
2934;SDS011;2462;51.456;7.248;2023-08-24T11:32:09;2.93;;;2.60;;
2934;SDS011;2462;51.456;7.248;2023-08-24T11:34:35;5.30;;;3.23;;
2934;SDS011;2462;51.456;7.248;2023-08-24T11:37:03;5.30;;;2.70;;
2934;SDS011;2462;51.456;7.248;2023-08-24T11:39:29;4.20;;;2.87;;
2934;SDS011;2462;51.456;7.248;2023-08-24T11:44:25;2.93;;;2.53;;
2934;SDS011;2462;51.456;7.248;2023-08-24T11:46:51;3.17;;;2.60;;
2934;SDS011;2462;51.456;7.248;2023-08-24T11:49:17;5.60;;;2.40;;
2934;SDS011;2462;51.456;7.248;2023-08-24T11:51:43;4.73;;;2.47;;
2934;SDS011;2462;51.456;7.248;2023-08-24T11:54:09;2.90;;;2.40;;
2934;SDS011;2462;51.456;7.248;2023-08-24T11:56:42;6.37;;;2.90;;
2934;SDS011;2462;51.456;7.248;2023-08-24T11:59:10;3.47;;;2.30;;
2934;SDS011;2462;51.456;7.248;2023-08-24T12:01:38;3.73;;;2.90;;
2934;SDS011;2462;51.456;7.248;2023-08-24T12:04:05;3.80;;;2.47;;
2934;SDS011;2462;51.456;7.248;2023-08-24T12:06:31;3.60;;;2.83;;
2934;SDS011;2462;51.456;7.248;2023-08-24T12:08:57;6.28;;;2.70;;
2934;SDS011;2462;51.456;7.248;2023-08-24T12:11:23;4.50;;;2.80;;
2934;SDS011;2462;51.456;7.248;2023-08-24T12:13:52;6.90;;;2.87;;
2934;SDS011;2462;51.456;7.248;2023-08-24T12:16:19;5.27;;;2.43;;
2934;SDS011;2462;51.456;7.248;2023-08-24T12:21:21;3.93;;;2.77;;
2934;SDS011;2462;51.456;7.248;2023-08-24T12:26:22;4.97;;;2.37;;
2934;SDS011;2462;51.456;7.248;2023-08-24T12:28:49;3.75;;;2.88;;
2934;SDS011;2462;51.456;7.248;2023-08-24T12:31:16;6.07;;;4.30;;
2934;SDS011;2462;51.456;7.248;2023-08-24T12:33:42;5.00;;;4.60;;
2934;SDS011;2462;51.456;7.248;2023-08-24T12:36:09;6.32;;;3.67;;
2934;SDS011;2462;51.456;7.248;2023-08-24T12:38:35;4.67;;;2.83;;
2934;SDS011;2462;51.456;7.248;2023-08-24T12:41:01;3.93;;;3.23;;
2934;SDS011;2462;51.456;7.248;2023-08-24T12:43:28;4.40;;;3.50;;
2934;SDS011;2462;51.456;7.248;2023-08-24T12:45:54;3.53;;;2.80;;
2934;SDS011;2462;51.456;7.248;2023-08-24T12:48:20;4.93;;;3.40;;
2934;SDS011;2462;51.456;7.248;2023-08-24T12:50:46;4.53;;;2.80;;
2934;SDS011;2462;51.456;7.248;2023-08-24T12:53:12;4.70;;;2.80;;
2934;SDS011;2462;51.456;7.248;2023-08-24T12:55:38;5.50;;;3.37;;
2934;SDS011;2462;51.456;7.248;2023-08-24T12:58:05;3.70;;;2.87;;
2934;SDS011;2462;51.456;7.248;2023-08-24T13:00:31;2.93;;;2.33;;
2934;SDS011;2462;51.456;7.248;2023-08-24T13:02:57;4.28;;;2.70;;
2934;SDS011;2462;51.456;7.248;2023-08-24T13:05:23;6.10;;;3.87;;
2934;SDS011;2462;51.456;7.248;2023-08-24T13:07:49;3.70;;;3.00;;
2934;SDS011;2462;51.456;7.248;2023-08-24T13:10:16;6.93;;;3.10;;
2934;SDS011;2462;51.456;7.248;2023-08-24T13:12:42;5.23;;;3.30;;
2934;SDS011;2462;51.456;7.248;2023-08-24T13:15:08;5.10;;;3.45;;
2934;SDS011;2462;51.456;7.248;2023-08-24T13:17:36;5.03;;;3.13;;
2934;SDS011;2462;51.456;7.248;2023-08-24T13:20:02;3.80;;;3.27;;
2934;SDS011;2462;51.456;7.248;2023-08-24T13:22:28;4.03;;;3.40;;
2934;SDS011;2462;51.456;7.248;2023-08-24T13:24:54;3.87;;;3.37;;
2934;SDS011;2462;51.456;7.248;2023-08-24T13:27:22;3.73;;;3.37;;
2934;SDS011;2462;51.456;7.248;2023-08-24T13:29:48;7.27;;;3.60;;
2934;SDS011;2462;51.456;7.248;2023-08-24T13:32:14;6.30;;;3.43;;
2934;SDS011;2462;51.456;7.248;2023-08-24T13:34:40;6.10;;;3.30;;
2934;SDS011;2462;51.456;7.248;2023-08-24T13:37:06;5.50;;;3.47;;
2934;SDS011;2462;51.456;7.248;2023-08-24T13:39:32;4.60;;;3.20;;
2934;SDS011;2462;51.456;7.248;2023-08-24T13:42:01;5.97;;;2.90;;
2934;SDS011;2462;51.456;7.248;2023-08-24T13:44:27;10.03;;;3.70;;
2934;SDS011;2462;51.456;7.248;2023-08-24T13:46:53;3.83;;;2.47;;
2934;SDS011;2462;51.456;7.248;2023-08-24T13:49:19;3.30;;;2.77;;
2934;SDS011;2462;51.456;7.248;2023-08-24T13:51:46;5.80;;;2.97;;
2934;SDS011;2462;51.456;7.248;2023-08-24T13:54:15;3.30;;;2.70;;
2934;SDS011;2462;51.456;7.248;2023-08-24T13:56:42;6.63;;;3.00;;
2934;SDS011;2462;51.456;7.248;2023-08-24T13:59:08;6.13;;;3.23;;
2934;SDS011;2462;51.456;7.248;2023-08-24T14:01:34;7.50;;;2.90;;
2934;SDS011;2462;51.456;7.248;2023-08-24T14:04:01;4.93;;;3.10;;
2934;SDS011;2462;51.456;7.248;2023-08-24T14:06:31;6.10;;;2.80;;
2934;SDS011;2462;51.456;7.248;2023-08-24T14:08:58;6.00;;;2.90;;
2934;SDS011;2462;51.456;7.248;2023-08-24T14:11:24;3.00;;;2.70;;
2934;SDS011;2462;51.456;7.248;2023-08-24T14:13:50;4.00;;;2.60;;
2934;SDS011;2462;51.456;7.248;2023-08-24T14:16:19;3.10;;;2.80;;
2934;SDS011;2462;51.456;7.248;2023-08-24T14:18:46;4.20;;;3.10;;
2934;SDS011;2462;51.456;7.248;2023-08-24T14:21:12;6.73;;;3.50;;
2934;SDS011;2462;51.456;7.248;2023-08-24T14:23:38;4.67;;;3.17;;
2934;SDS011;2462;51.456;7.248;2023-08-24T14:26:04;3.17;;;2.10;;
2934;SDS011;2462;51.456;7.248;2023-08-24T14:31:18;6.63;;;3.73;;
2934;SDS011;2462;51.456;7.248;2023-08-24T14:33:44;3.83;;;3.00;;
2934;SDS011;2462;51.456;7.248;2023-08-24T14:36:10;3.73;;;2.93;;
2934;SDS011;2462;51.456;7.248;2023-08-24T14:38:39;4.43;;;2.37;;
2934;SDS011;2462;51.456;7.248;2023-08-24T14:41:09;5.40;;;2.97;;
2934;SDS011;2462;51.456;7.248;2023-08-24T14:43:36;3.87;;;2.47;;
2934;SDS011;2462;51.456;7.248;2023-08-24T14:46:02;6.43;;;3.57;;
2934;SDS011;2462;51.456;7.248;2023-08-24T14:48:28;5.43;;;3.23;;
2934;SDS011;2462;51.456;7.248;2023-08-24T14:50:55;6.00;;;3.50;;
2934;SDS011;2462;51.456;7.248;2023-08-24T14:53:24;3.60;;;3.30;;
2934;SDS011;2462;51.456;7.248;2023-08-24T14:55:50;3.57;;;3.00;;
2934;SDS011;2462;51.456;7.248;2023-08-24T14:58:18;5.23;;;2.67;;
2934;SDS011;2462;51.456;7.248;2023-08-24T15:00:44;4.77;;;3.27;;
2934;SDS011;2462;51.456;7.248;2023-08-24T15:03:13;5.13;;;3.30;;
2934;SDS011;2462;51.456;7.248;2023-08-24T15:05:44;5.53;;;3.23;;
2934;SDS011;2462;51.456;7.248;2023-08-24T15:08:10;5.03;;;3.13;;
2934;SDS011;2462;51.456;7.248;2023-08-24T15:10:40;5.30;;;3.43;;
2934;SDS011;2462;51.456;7.248;2023-08-24T15:13:06;3.53;;;3.20;;
2934;SDS011;2462;51.456;7.248;2023-08-24T15:15:35;6.17;;;3.80;;
2934;SDS011;2462;51.456;7.248;2023-08-24T15:18:02;5.00;;;3.57;;
2934;SDS011;2462;51.456;7.248;2023-08-24T15:20:28;5.33;;;3.23;;
2934;SDS011;2462;51.456;7.248;2023-08-24T15:22:54;5.03;;;3.60;;
2934;SDS011;2462;51.456;7.248;2023-08-24T15:25:21;4.30;;;3.50;;
2934;SDS011;2462;51.456;7.248;2023-08-24T15:27:47;5.60;;;3.60;;
2934;SDS011;2462;51.456;7.248;2023-08-24T15:30:13;4.20;;;3.03;;